Time;durP1;ratioP1;P1;durP2;ratioP2;P2;SDS_P1;SDS_P2;PMS_P1;PMS_P2;Temp;Humidity;BMP_temperature;BMP_pressure;BME280_temperature;BME280_humidity;BME280_pressure;Samples;Min_cycle;Max_cycle;Signal;HPM_P1;HPM_P2
2022/05/17 00:00:00;;;;;;;16.17;15.48;;;;;;;;;;5092184;28;20256;-70
2022/05/17 00:02:26;;;;;;;16.05;15.35;;;;;;;;;;5096328;28;20285;-71
2022/05/17 00:04:53;;;;;;;16.50;15.80;;;;;;;;;;5096186;28;20189;-72
2022/05/17 00:07:20;;;;;;;16.60;15.90;;;;;;;;;;5096150;28;20194;-71
2022/05/17 00:09:46;;;;;;;16.30;15.60;;;;;;;;;;5095520;28;20311;-79
2022/05/17 00:12:13;;;;;;;16.25;15.55;;;;;;;;;;5095795;28;20189;-72
2022/05/17 00:14:41;;;;;;;15.90;15.30;;;;;;;;;;5095685;28;20639;-71
2022/05/17 00:17:09;;;;;;;16.42;15.73;;;;;;;;;;5095989;28;20280;-71
2022/05/17 00:19:35;;;;;;;16.40;15.70;;;;;;;;;;5095575;28;20656;-71
2022/05/17 00:22:02;;;;;;;16.02;15.40;;;;;;;;;;5095601;28;20211;-71
2022/05/17 00:24:29;;;;;;;15.70;15.10;;;;;;;;;;5095569;28;20234;-71
2022/05/17 00:26:56;;;;;;;16.40;15.70;;;;;;;;;;5095761;28;20277;-71
2022/05/17 00:29:23;;;;;;;16.70;16.00;;;;;;;;;;5095392;28;20421;-71
2022/05/17 00:31:51;;;;;;;16.17;15.48;;;;;;;;;;5095686;28;20197;-71
2022/05/17 00:34:17;;;;;;;15.50;14.90;;;;;;;;;;5095648;28;20197;-71
2022/05/17 00:36:44;;;;;;;15.90;15.30;;;;;;;;;;5095854;28;20204;-72
2022/05/17 00:39:11;;;;;;;16.00;15.40;;;;;;;;;;5095220;28;20230;-79
2022/05/17 00:41:38;;;;;;;16.20;15.50;;;;;;;;;;5095477;28;20225;-71
2022/05/17 00:46:53;;;;;;;15.95;15.35;;;;;;;;;;5095533;28;20235;-79
2022/05/17 00:49:23;;;;;;;16.58;15.88;;;;;;;;;;5095200;28;20236;-72
2022/05/17 00:51:50;;;;;;;16.60;15.90;;;;;;;;;;5095332;28;20316;-72
2022/05/17 00:54:17;;;;;;;16.45;15.75;;;;;;;;;;5095277;28;20256;-79
2022/05/17 00:56:46;;;;;;;16.38;15.68;;;;;;;;;;5094891;28;20285;-71
2022/05/17 00:59:13;;;;;;;16.00;15.40;;;;;;;;;;5094834;28;20288;-74
2022/05/17 01:01:39;;;;;;;15.93;15.32;;;;;;;;;;5095119;28;20262;-72
2022/05/17 01:04:08;;;;;;;16.17;15.52;;;;;;;;;;5094774;28;20675;-71
2022/05/17 01:06:38;;;;;;;16.10;15.40;;;;;;;;;;5095038;28;20221;-71
2022/05/17 01:09:05;;;;;;;15.70;15.10;;;;;;;;;;5095144;28;20228;-77
2022/05/17 01:11:32;;;;;;;15.80;15.20;;;;;;;;;;5094440;28;20325;-79
2022/05/17 01:16:44;;;;;;;15.60;15.00;;;;;;;;;;5094907;28;20263;-71
2022/05/17 01:19:11;;;;;;;16.20;15.50;;;;;;;;;;5094471;28;20284;-71
2022/05/17 01:21:39;;;;;;;16.00;15.40;;;;;;;;;;5094732;28;20226;-71
2022/05/17 01:24:06;;;;;;;16.15;15.48;;;;;;;;;;5094449;28;20285;-71
2022/05/17 01:26:35;;;;;;;16.50;15.80;;;;;;;;;;5094335;28;20766;-76
2022/05/17 01:29:02;;;;;;;15.80;15.20;;;;;;;;;;5094718;28;20272;-72
2022/05/17 01:31:30;;;;;;;15.85;15.25;;;;;;;;;;5094313;28;20572;-72
2022/05/17 01:33:58;;;;;;;16.30;15.60;;;;;;;;;;5094204;28;20197;-71
2022/05/17 01:36:24;;;;;;;16.38;15.70;;;;;;;;;;5094504;28;20232;-71
2022/05/17 01:38:52;;;;;;;15.80;15.20;;;;;;;;;;5094115;28;20289;-71
2022/05/17 01:41:19;;;;;;;15.70;15.10;;;;;;;;;;5094289;28;20194;-72
2022/05/17 01:43:46;;;;;;;15.90;15.30;;;;;;;;;;5094037;28;20758;-78
2022/05/17 01:46:13;;;;;;;15.63;15.02;;;;;;;;;;5094487;28;20285;-71
2022/05/17 01:48:40;;;;;;;16.38;15.68;;;;;;;;;;5094197;28;20198;-72
2022/05/17 01:51:08;;;;;;;17.02;16.33;;;;;;;;;;5093895;28;20198;-71
2022/05/17 01:53:35;;;;;;;16.23;15.63;;;;;;;;;;5094440;28;20231;-72
2022/05/17 01:56:03;;;;;;;15.80;15.20;;;;;;;;;;5094134;28;20230;-71
2022/05/17 01:58:30;;;;;;;16.60;15.90;;;;;;;;;;5093744;28;20285;-75
2022/05/17 02:00:56;;;;;;;15.77;15.18;;;;;;;;;;5093830;28;20190;-71
2022/05/17 02:03:23;;;;;;;16.92;16.23;;;;;;;;;;5093944;28;20677;-72
2022/05/17 02:05:50;;;;;;;16.08;15.48;;;;;;;;;;5093711;28;20673;-74
2022/05/17 02:08:17;;;;;;;16.30;15.70;;;;;;;;;;5093525;28;20194;-71
2022/05/17 02:10:43;;;;;;;15.60;15.00;;;;;;;;;;5093219;28;20697;-71
2022/05/17 02:13:11;;;;;;;16.70;16.00;;;;;;;;;;5093858;28;20280;-79
2022/05/17 02:15:38;;;;;;;16.30;15.60;;;;;;;;;;5093698;28;20236;-71
2022/05/17 02:18:05;;;;;;;16.65;15.95;;;;;;;;;;5093647;28;20739;-73
2022/05/17 02:20:32;;;;;;;16.42;15.73;;;;;;;;;;5093561;28;20200;-72
2022/05/17 02:23:00;;;;;;;16.60;15.90;;;;;;;;;;5093859;28;20293;-72
2022/05/17 02:25:26;;;;;;;16.35;15.65;;;;;;;;;;5093374;28;20650;-71
2022/05/17 02:27:53;;;;;;;15.57;14.98;;;;;;;;;;5093156;28;20280;-72
2022/05/17 02:30:21;;;;;;;15.40;14.80;;;;;;;;;;5093013;28;20316;-71
2022/05/17 02:32:49;;;;;;;15.77;15.18;;;;;;;;;;5093280;28;20675;-72
2022/05/17 02:35:15;;;;;;;16.48;15.77;;;;;;;;;;5093370;28;20310;-72
2022/05/17 02:37:42;;;;;;;16.65;15.95;;;;;;;;;;5093233;28;20225;-72
2022/05/17 02:40:10;;;;;;;15.90;15.30;;;;;;;;;;5093185;28;20196;-71
2022/05/17 02:42:36;;;;;;;15.52;14.93;;;;;;;;;;5092865;28;20276;-79
2022/05/17 02:45:03;;;;;;;16.10;15.50;;;;;;;;;;5093126;28;20276;-71
2022/05/17 02:47:31;;;;;;;16.10;15.50;;;;;;;;;;5092815;28;20734;-75
2022/05/17 02:49:58;;;;;;;16.58;15.88;;;;;;;;;;5092620;28;20602;-77
2022/05/17 02:52:25;;;;;;;17.40;16.70;;;;;;;;;;5092670;28;20229;-71
2022/05/17 02:54:51;;;;;;;16.42;15.73;;;;;;;;;;5093010;28;20305;-71
2022/05/17 02:57:18;;;;;;;17.42;16.73;;;;;;;;;;5092882;28;20277;-79
2022/05/17 02:59:45;;;;;;;17.05;16.35;;;;;;;;;;5092875;28;20211;-76
2022/05/17 03:02:11;;;;;;;17.42;16.73;;;;;;;;;;5093142;28;20193;-79
2022/05/17 03:04:39;;;;;;;16.15;15.45;;;;;;;;;;5092500;28;20247;-79
2022/05/17 03:07:06;;;;;;;16.05;15.45;;;;;;;;;;5092458;28;20202;-71
2022/05/17 03:09:33;;;;;;;15.57;14.98;;;;;;;;;;5092496;28;20681;-73
2022/05/17 03:12:02;;;;;;;15.02;14.45;;;;;;;;;;5092441;28;20244;-71
2022/05/17 03:14:28;;;;;;;15.50;14.90;;;;;;;;;;5092388;28;20573;-72
2022/05/17 03:16:55;;;;;;;15.50;14.90;;;;;;;;;;5092871;28;20224;-73
2022/05/17 03:19:22;;;;;;;15.75;15.15;;;;;;;;;;5092359;28;20763;-71
2022/05/17 03:21:50;;;;;;;15.63;15.02;;;;;;;;;;5092627;28;20247;-71
2022/05/17 03:24:17;;;;;;;15.80;15.20;;;;;;;;;;5092309;28;20190;-73
2022/05/17 03:26:43;;;;;;;15.35;14.75;;;;;;;;;;5092210;28;20189;-71
2022/05/17 03:29:10;;;;;;;15.60;15.00;;;;;;;;;;5092363;28;20635;-79
2022/05/17 03:31:37;;;;;;;15.38;14.77;;;;;;;;;;5092492;28;20219;-76
2022/05/17 03:34:04;;;;;;;14.90;14.30;;;;;;;;;;5092444;28;20285;-73
2022/05/17 03:36:30;;;;;;;15.40;14.80;;;;;;;;;;5091895;28;20193;-76
2022/05/17 03:38:58;;;;;;;15.65;15.05;;;;;;;;;;5092051;28;20296;-78
2022/05/17 03:41:25;;;;;;;16.20;15.50;;;;;;;;;;5091979;28;20324;-71
2022/05/17 03:43:52;;;;;;;16.40;15.70;;;;;;;;;;5092343;28;20201;-71
2022/05/17 03:46:20;;;;;;;16.65;15.95;;;;;;;;;;5092364;28;20280;-71
2022/05/17 03:48:47;;;;;;;16.25;15.55;;;;;;;;;;5092393;28;20194;-72
2022/05/17 03:51:14;;;;;;;17.42;16.63;;;;;;;;;;5092262;28;20276;-71
2022/05/17 03:53:41;;;;;;;16.40;15.63;;;;;;;;;;5091942;28;20280;-71
2022/05/17 03:56:10;;;;;;;16.50;15.80;;;;;;;;;;5092220;28;20273;-71
2022/05/17 03:58:36;;;;;;;16.88;16.08;;;;;;;;;;5092195;28;20225;-71
2022/05/17 04:01:03;;;;;;;16.98;16.17;;;;;;;;;;5092162;28;20229;-72
2022/05/17 04:03:30;;;;;;;17.20;16.40;;;;;;;;;;5091835;28;20189;-71
2022/05/17 04:05:57;;;;;;;16.83;16.02;;;;;;;;;;5092043;28;20285;-72
2022/05/17 04:08:24;;;;;;;17.15;16.35;;;;;;;;;;5091800;28;20675;-72
2022/05/17 04:10:50;;;;;;;16.65;15.85;;;;;;;;;;5091636;28;20727;-72
2022/05/17 04:13:19;;;;;;;17.30;16.50;;;;;;;;;;5091768;28;20196;-72
2022/05/17 04:15:45;;;;;;;17.40;16.60;;;;;;;;;;5092115;28;20197;-72
2022/05/17 04:18:12;;;;;;;17.00;16.20;;;;;;;;;;5092044;28;20277;-71
2022/05/17 04:20:39;;;;;;;16.92;16.13;;;;;;;;;;5091925;28;20232;-71
2022/05/17 04:23:05;;;;;;;17.13;16.33;;;;;;;;;;5092050;28;20201;-71
2022/05/17 04:25:32;;;;;;;17.20;16.40;;;;;;;;;;5091972;28;20198;-71
2022/05/17 04:27:59;;;;;;;17.15;16.35;;;;;;;;;;5091834;28;20284;-71
2022/05/17 04:30:27;;;;;;;16.98;16.17;;;;;;;;;;5091615;28;20289;-71
2022/05/17 04:32:54;;;;;;;17.08;16.27;;;;;;;;;;5092375;28;20244;-71
2022/05/17 04:35:20;;;;;;;16.95;16.15;;;;;;;;;;5091891;28;20216;-71
2022/05/17 04:37:47;;;;;;;17.67;16.77;;;;;;;;;;5091528;28;20234;-71
2022/05/17 04:40:14;;;;;;;17.50;16.60;;;;;;;;;;5091459;28;20271;-71
2022/05/17 04:42:43;;;;;;;17.50;16.60;;;;;;;;;;5091809;28;20281;-71
2022/05/17 04:45:11;;;;;;;17.60;16.70;;;;;;;;;;5091491;28;20201;-71
2022/05/17 04:47:40;;;;;;;17.40;16.60;;;;;;;;;;5091961;28;20285;-71
2022/05/17 04:50:08;;;;;;;18.30;17.40;;;;;;;;;;5095629;28;20250;-71
2022/05/17 04:52:35;;;;;;;17.70;16.90;;;;;;;;;;5095044;28;20251;-71
2022/05/17 04:55:01;;;;;;;17.58;16.77;;;;;;;;;;5095519;28;20232;-71
2022/05/17 04:57:28;;;;;;;17.65;16.85;;;;;;;;;;5095250;28;20228;-71
2022/05/17 04:59:55;;;;;;;17.38;16.58;;;;;;;;;;5095629;28;20312;-71
2022/05/17 05:02:21;;;;;;;17.63;16.83;;;;;;;;;;5095018;28;20198;-71
2022/05/17 05:04:49;;;;;;;17.40;16.60;;;;;;;;;;5094769;28;20229;-71
2022/05/17 05:07:16;;;;;;;17.30;16.50;;;;;;;;;;5094727;28;20280;-71
2022/05/17 05:09:43;;;;;;;17.70;16.90;;;;;;;;;;5094807;28;20228;-71
2022/05/17 05:12:10;;;;;;;17.63;16.83;;;;;;;;;;5095044;28;20186;-71
2022/05/17 05:14:37;;;;;;;17.63;16.83;;;;;;;;;;5094586;28;20290;-71
2022/05/17 05:17:03;;;;;;;17.10;16.30;;;;;;;;;;5094878;28;20272;-71
2022/05/17 05:19:30;;;;;;;17.48;16.67;;;;;;;;;;5094488;28;20232;-71
2022/05/17 05:21:59;;;;;;;17.23;16.42;;;;;;;;;;5094405;28;20316;-71
2022/05/17 05:24:25;;;;;;;17.77;16.98;;;;;;;;;;5094421;28;20667;-71
2022/05/17 05:26:52;;;;;;;16.92;16.23;;;;;;;;;;5094594;28;20652;-72
2022/05/17 05:29:19;;;;;;;16.95;16.25;;;;;;;;;;5094340;28;20230;-72
2022/05/17 05:31:46;;;;;;;17.13;16.42;;;;;;;;;;5094523;28;20198;-71
2022/05/17 05:34:12;;;;;;;17.77;16.98;;;;;;;;;;5094600;28;20281;-71
2022/05/17 05:36:39;;;;;;;17.27;16.55;;;;;;;;;;5094456;28;20611;-71
2022/05/17 05:39:07;;;;;;;17.20;16.50;;;;;;;;;;5094426;28;20216;-71
2022/05/17 05:41:34;;;;;;;17.20;16.50;;;;;;;;;;5094024;28;20229;-71
2022/05/17 05:44:01;;;;;;;17.05;16.35;;;;;;;;;;5094284;28;20190;-72
2022/05/17 05:46:28;;;;;;;17.92;17.13;;;;;;;;;;5093971;28;20229;-71
2022/05/17 05:48:55;;;;;;;17.20;16.50;;;;;;;;;;5093933;28;20204;-71
2022/05/17 05:51:22;;;;;;;17.30;16.60;;;;;;;;;;5094104;28;20750;-71
2022/05/17 05:53:48;;;;;;;16.67;15.98;;;;;;;;;;5094134;28;20221;-71
2022/05/17 05:56:16;;;;;;;16.80;16.10;;;;;;;;;;5094120;28;20575;-71
2022/05/17 05:58:43;;;;;;;17.13;16.42;;;;;;;;;;5093596;28;20273;-71
2022/05/17 06:01:10;;;;;;;17.15;16.45;;;;;;;;;;5093873;28;20229;-71
2022/05/17 06:03:37;;;;;;;17.20;16.50;;;;;;;;;;5093984;28;20289;-71
2022/05/17 06:06:04;;;;;;;17.15;16.45;;;;;;;;;;5093915;28;20277;-71
2022/05/17 06:08:31;;;;;;;16.92;16.23;;;;;;;;;;5093515;28;20288;-71
2022/05/17 06:10:59;;;;;;;17.20;16.50;;;;;;;;;;5093483;28;20316;-71
2022/05/17 06:13:27;;;;;;;17.35;16.65;;;;;;;;;;5093400;28;20198;-71
2022/05/17 06:15:53;;;;;;;17.38;16.58;;;;;;;;;;5093760;28;20289;-71
2022/05/17 06:18:20;;;;;;;17.17;16.48;;;;;;;;;;5093626;28;20202;-71
2022/05/17 06:20:49;;;;;;;16.98;16.27;;;;;;;;;;5093527;28;20311;-71
2022/05/17 06:23:16;;;;;;;16.98;16.27;;;;;;;;;;5093274;28;20247;-71
2022/05/17 06:25:43;;;;;;;17.20;16.40;;;;;;;;;;5094105;28;20189;-72
2022/05/17 06:28:09;;;;;;;18.00;17.20;;;;;;;;;;5093485;28;20248;-71
2022/05/17 06:30:38;;;;;;;16.90;16.20;;;;;;;;;;5093410;28;20300;-71
2022/05/17 06:33:07;;;;;;;17.02;16.33;;;;;;;;;;5093404;28;20200;-71
2022/05/17 06:35:34;;;;;;;17.20;16.50;;;;;;;;;;5093024;28;20740;-71
2022/05/17 06:38:02;;;;;;;16.75;16.05;;;;;;;;;;5092980;28;20193;-72
2022/05/17 06:40:28;;;;;;;16.92;16.23;;;;;;;;;;5093151;28;20275;-72
2022/05/17 06:42:55;;;;;;;16.77;16.08;;;;;;;;;;5093192;28;20221;-71
2022/05/17 06:45:22;;;;;;;17.08;16.38;;;;;;;;;;5093177;28;20194;-72
2022/05/17 06:47:50;;;;;;;16.70;16.00;;;;;;;;;;5093056;28;20288;-73
2022/05/17 06:50:16;;;;;;;16.85;16.15;;;;;;;;;;5092744;28;20197;-71
2022/05/17 06:52:44;;;;;;;17.17;16.48;;;;;;;;;;5092750;28;20190;-71
2022/05/17 06:55:11;;;;;;;17.23;16.52;;;;;;;;;;5092660;28;20567;-71
2022/05/17 06:57:37;;;;;;;17.00;16.30;;;;;;;;;;5092893;28;20240;-71
2022/05/17 07:00:05;;;;;;;16.88;16.17;;;;;;;;;;5092656;28;20288;-72
2022/05/17 07:02:32;;;;;;;16.77;16.08;;;;;;;;;;5092861;28;20679;-72
2022/05/17 07:05:00;;;;;;;16.45;15.75;;;;;;;;;;5092837;28;20276;-71
2022/05/17 07:07:27;;;;;;;18.00;17.20;;;;;;;;;;5092510;28;20229;-71
2022/05/17 07:15:22;;;;;;;16.80;16.10;;;;;;;;;;5093081;28;20193;-71
2022/05/17 07:17:49;;;;;;;16.20;15.52;;;;;;;;;;5092380;28;20288;-72
2022/05/17 07:20:17;;;;;;;16.00;15.38;;;;;;;;;;5092562;28;20194;-72
2022/05/17 07:22:43;;;;;;;15.98;15.38;;;;;;;;;;5092595;28;20232;-72
2022/05/17 07:25:10;;;;;;;18.27;17.55;;;;;;;;;;5092324;28;20683;-70
2022/05/17 07:27:37;;;;;;;17.30;16.60;;;;;;;;;;5092185;28;20642;-72
2022/05/17 07:30:05;;;;;;;16.38;15.68;;;;;;;;;;5092261;28;20284;-71
2022/05/17 07:32:32;;;;;;;16.65;15.95;;;;;;;;;;5092706;28;20224;-71
2022/05/17 07:34:58;;;;;;;16.38;15.68;;;;;;;;;;5092116;28;20687;-71
2022/05/17 07:37:26;;;;;;;16.50;15.80;;;;;;;;;;5092497;28;20221;-72
2022/05/17 07:39:53;;;;;;;16.33;15.63;;;;;;;;;;5092354;28;20190;-72
2022/05/17 07:42:20;;;;;;;16.08;15.48;;;;;;;;;;5092557;28;20229;-71
2022/05/17 07:44:46;;;;;;;16.08;15.48;;;;;;;;;;5092380;28;20572;-71
2022/05/17 07:47:13;;;;;;;16.02;15.43;;;;;;;;;;5092229;28;20193;-72
2022/05/17 07:49:40;;;;;;;15.93;15.32;;;;;;;;;;5091998;28;20671;-72
2022/05/17 07:52:07;;;;;;;16.08;15.48;;;;;;;;;;5092022;28;20622;-72
2022/05/17 07:54:37;;;;;;;16.15;15.55;;;;;;;;;;5091947;28;20652;-71
2022/05/17 07:57:04;;;;;;;15.98;15.38;;;;;;;;;;5091911;28;20232;-72
2022/05/17 07:59:31;;;;;;;15.90;15.30;;;;;;;;;;5092279;28;20273;-71
2022/05/17 08:01:57;;;;;;;15.88;15.27;;;;;;;;;;5092139;28;20229;-72
2022/05/17 08:04:24;;;;;;;15.68;15.07;;;;;;;;;;5092186;28;20345;-71
2022/05/17 08:06:51;;;;;;;15.68;15.07;;;;;;;;;;5092195;28;20568;-71
2022/05/17 08:09:18;;;;;;;15.65;15.05;;;;;;;;;;5092363;28;20197;-72
2022/05/17 08:11:46;;;;;;;16.00;15.40;;;;;;;;;;5091714;28;20235;-72
2022/05/17 08:14:13;;;;;;;15.70;15.10;;;;;;;;;;5092073;28;20194;-71
2022/05/17 08:16:40;;;;;;;15.70;15.10;;;;;;;;;;5091738;28;20240;-71
2022/05/17 08:19:06;;;;;;;16.10;15.40;;;;;;;;;;5092086;28;20190;-71
2022/05/17 08:21:33;;;;;;;15.63;15.02;;;;;;;;;;5092021;28;20218;-73
2022/05/17 08:24:00;;;;;;;15.80;15.20;;;;;;;;;;5095913;28;20281;-72
2022/05/17 08:29:12;;;;;;;15.88;15.27;;;;;;;;;;5096177;28;20182;-72
2022/05/17 08:31:39;;;;;;;16.00;15.40;;;;;;;;;;5095957;28;20240;-72
2022/05/17 08:34:07;;;;;;;15.90;15.30;;;;;;;;;;5095450;28;20234;-71
2022/05/17 08:36:34;;;;;;;16.17;15.57;;;;;;;;;;5095680;28;20193;-72
2022/05/17 08:39:01;;;;;;;16.02;15.43;;;;;;;;;;5095300;28;20739;-72
2022/05/17 08:41:30;;;;;;;16.75;16.05;;;;;;;;;;5096308;28;20308;-71
2022/05/17 08:43:57;;;;;;;16.67;15.98;;;;;;;;;;5095499;28;20198;-78
2022/05/17 08:46:32;;;;;;;17.90;17.20;;;;;;;;;;5095710;28;20298;-71
2022/05/17 08:49:02;;;;;;;16.70;16.05;;;;;;;;;;5095471;28;20280;-72
2022/05/17 08:51:40;;;;;;;15.73;15.13;;;;;;;;;;5095358;28;20239;-71
2022/05/17 08:54:09;;;;;;;16.20;15.60;;;;;;;;;;5095081;28;20277;-71
2022/05/17 08:56:38;;;;;;;16.27;15.65;;;;;;;;;;5095030;28;20190;-71
2022/05/17 08:59:05;;;;;;;16.00;15.40;;;;;;;;;;5094914;28;20229;-71
2022/05/17 09:01:38;;;;;;;17.13;16.42;;;;;;;;;;5094817;28;20228;-70
2022/05/17 09:04:21;;;;;;;19.27;18.48;;;;;;;;;;5094922;28;20277;-72
2022/05/17 09:06:51;;;;;;;16.15;15.55;;;;;;;;;;5095186;28;20185;-70
2022/05/17 09:09:21;;;;;;;16.38;15.77;;;;;;;;;;5094736;28;20284;-71
2022/05/17 09:11:49;;;;;;;16.25;15.65;;;;;;;;;;5094234;28;20266;-70
2022/05/17 09:14:17;;;;;;;16.70;16.05;;;;;;;;;;5094945;28;20200;-72
2022/05/17 09:16:46;;;;;;;16.20;15.60;;;;;;;;;;5094604;28;20197;-71
2022/05/17 09:19:14;;;;;;;16.20;15.60;;;;;;;;;;5094574;28;20198;-71
2022/05/17 09:21:41;;;;;;;16.27;15.68;;;;;;;;;;5094684;28;20320;-71
2022/05/17 09:24:10;;;;;;;16.20;15.60;;;;;;;;;;5094798;28;20189;-70
2022/05/17 09:26:37;;;;;;;16.80;16.10;;;;;;;;;;5094668;28;20196;-72
2022/05/17 09:29:08;;;;;;;16.90;16.20;;;;;;;;;;5094353;28;20276;-71
2022/05/17 09:31:35;;;;;;;16.75;16.05;;;;;;;;;;5094651;28;20277;-72
2022/05/17 09:34:05;;;;;;;16.80;16.10;;;;;;;;;;5093470;28;20281;-71
2022/05/17 09:36:34;;;;;;;16.73;16.02;;;;;;;;;;5094253;28;20197;-71
2022/05/17 09:39:01;;;;;;;16.77;16.08;;;;;;;;;;5094178;28;20202;-71
2022/05/17 09:41:31;;;;;;;16.98;16.27;;;;;;;;;;5094069;28;20698;-71
2022/05/17 09:44:00;;;;;;;17.50;16.70;;;;;;;;;;5094394;28;20201;-71
2022/05/17 09:46:32;;;;;;;16.55;15.85;;;;;;;;;;5094359;28;20220;-73
2022/05/17 09:54:36;;;;;;;16.23;15.63;;;;;;;;;;5094276;28;20243;-72
2022/05/17 09:57:13;;;;;;;16.42;15.73;;;;;;;;;;5093758;28;20189;-71
2022/05/17 09:59:40;;;;;;;16.45;15.75;;;;;;;;;;5094074;28;20236;-73
2022/05/17 10:02:25;;;;;;;16.33;15.65;;;;;;;;;;5093593;28;20232;-73
2022/05/17 10:04:52;;;;;;;16.17;15.57;;;;;;;;;;5093679;28;20228;-72
2022/05/17 10:07:29;;;;;;;16.13;15.52;;;;;;;;;;5093604;28;20194;-72
2022/05/17 10:09:55;;;;;;;17.13;16.42;;;;;;;;;;5093382;28;20746;-72
2022/05/17 10:12:27;;;;;;;16.08;15.48;;;;;;;;;;5093500;28;20717;-71
2022/05/17 10:14:56;;;;;;;16.30;15.70;;;;;;;;;;5093543;28;20201;-72
2022/05/17 10:17:30;;;;;;;16.15;15.55;;;;;;;;;;5093711;28;20276;-73
2022/05/17 10:19:58;;;;;;;16.17;15.57;;;;;;;;;;5093765;28;20250;-72
2022/05/17 10:22:28;;;;;;;16.00;15.40;;;;;;;;;;5093593;28;20257;-72
2022/05/17 10:24:58;;;;;;;16.10;15.50;;;;;;;;;;5093578;28;20275;-73
2022/05/17 10:27:27;;;;;;;16.48;15.77;;;;;;;;;;5093187;28;20571;-72
2022/05/17 10:29:55;;;;;;;17.65;16.85;;;;;;;;;;5093449;28;20281;-72
2022/05/17 10:32:25;;;;;;;16.15;15.45;;;;;;;;;;5093429;28;20223;-71
2022/05/17 10:34:53;;;;;;;16.83;16.13;;;;;;;;;;5093409;28;20240;-71
2022/05/17 10:37:21;;;;;;;16.35;15.65;;;;;;;;;;5093302;28;20285;-71
2022/05/17 10:39:53;;;;;;;16.25;15.55;;;;;;;;;;5093272;28;20194;-72
2022/05/17 10:42:21;;;;;;;16.02;15.32;;;;;;;;;;5092997;28;20217;-72
2022/05/17 10:44:50;;;;;;;16.60;15.90;;;;;;;;;;5093198;28;20194;-73
2022/05/17 10:47:21;;;;;;;16.33;15.63;;;;;;;;;;5093174;28;20279;-72
2022/05/17 10:50:05;;;;;;;16.08;15.38;;;;;;;;;;5093188;28;20221;-73
2022/05/17 10:52:36;;;;;;;16.25;15.55;;;;;;;;;;5093114;28;20186;-71
2022/05/17 10:55:12;;;;;;;16.30;15.60;;;;;;;;;;5093029;28;20220;-71
2022/05/17 10:57:44;;;;;;;16.10;15.40;;;;;;;;;;5092976;28;20284;-73
2022/05/17 11:00:14;;;;;;;16.30;15.60;;;;;;;;;;5092978;28;20194;-73
2022/05/17 11:02:54;;;;;;;16.25;15.55;;;;;;;;;;5093135;28;20272;-72
2022/05/17 11:05:25;;;;;;;16.13;15.52;;;;;;;;;;5092816;28;20235;-72
2022/05/17 11:07:56;;;;;;;16.48;15.77;;;;;;;;;;5092854;28;20218;-72
2022/05/17 11:10:30;;;;;;;16.92;16.23;;;;;;;;;;5092262;28;20261;-73
2022/05/17 11:13:02;;;;;;;16.60;15.90;;;;;;;;;;5092665;28;20704;-73
2022/05/17 11:15:35;;;;;;;17.13;16.42;;;;;;;;;;5092443;28;20213;-73
2022/05/17 11:18:04;;;;;;;17.52;16.73;;;;;;;;;;5092442;28;20186;-72
2022/05/17 11:20:33;;;;;;;17.05;16.35;;;;;;;;;;5092859;28;20204;-72
2022/05/17 11:23:09;;;;;;;16.58;15.88;;;;;;;;;;5092259;28;20261;-72
2022/05/17 11:25:47;;;;;;;16.65;15.95;;;;;;;;;;5092531;28;20186;-74
2022/05/17 11:28:31;;;;;;;16.75;16.05;;;;;;;;;;5092593;28;20188;-71
2022/05/17 11:31:01;;;;;;;16.52;15.82;;;;;;;;;;5092288;28;20222;-72
2022/05/17 11:33:33;;;;;;;16.60;15.90;;;;;;;;;;5092534;28;20572;-73
2022/05/17 11:36:00;;;;;;;16.45;15.75;;;;;;;;;;5092132;28;20229;-72
2022/05/17 11:38:54;;;;;;;17.55;16.75;;;;;;;;;;5093496;28;20198;-73
2022/05/17 11:41:24;;;;;;;17.80;17.00;;;;;;;;;;5067673;28;20203;-73
2022/05/17 11:43:52;;;;;;;17.52;16.73;;;;;;;;;;5092583;28;20267;-72
2022/05/17 11:46:40;;;;;;;17.15;16.38;;;;;;;;;;5092324;28;20197;-73
2022/05/17 11:49:20;;;;;;;17.80;17.00;;;;;;;;;;5088832;28;20636;-71
2022/05/17 11:52:02;;;;;;;17.38;16.67;;;;;;;;;;5092339;28;20182;-73
2022/05/17 11:54:42;;;;;;;17.58;16.77;;;;;;;;;;5091909;28;20284;-73
2022/05/17 11:57:11;;;;;;;17.48;16.67;;;;;;;;;;5093720;28;20186;-72
2022/05/17 11:59:43;;;;;;;16.92;16.20;;;;;;;;;;5096370;28;20193;-73
2022/05/17 12:02:11;;;;;;;17.50;16.70;;;;;;;;;;5095940;28;20686;-73
2022/05/17 12:04:42;;;;;;;17.77;16.98;;;;;;;;;;5096022;28;20285;-72
2022/05/17 12:07:22;;;;;;;18.25;17.45;;;;;;;;;;5096283;28;20285;-73
2022/05/17 12:09:49;;;;;;;17.30;16.60;;;;;;;;;;5095718;28;20228;-73
2022/05/17 12:12:28;;;;;;;16.65;15.95;;;;;;;;;;5095836;28;20228;-73
2022/05/17 12:15:04;;;;;;;16.95;16.25;;;;;;;;;;5096172;28;20573;-73
2022/05/17 12:17:34;;;;;;;17.95;17.15;;;;;;;;;;5095997;28;20182;-70
2022/05/17 12:20:05;;;;;;;16.88;16.17;;;;;;;;;;5096247;28;20232;-72
2022/05/17 12:22:34;;;;;;;17.48;16.67;;;;;;;;;;5095945;28;20213;-72
2022/05/17 12:25:05;;;;;;;16.77;15.98;;;;;;;;;;5095987;28;20190;-72
2022/05/17 12:27:35;;;;;;;17.55;16.75;;;;;;;;;;5095535;28;20723;-71
2022/05/17 12:32:49;;;;;;;17.00;16.20;;;;;;;;;;5095862;28;20181;-73
2022/05/17 12:35:23;;;;;;;17.10;16.30;;;;;;;;;;5095780;28;20244;-73
2022/05/17 12:37:50;;;;;;;18.95;18.05;;;;;;;;;;5095421;28;20558;-74
2022/05/17 12:43:06;;;;;;;17.00;16.20;;;;;;;;;;5095907;28;20310;-74
2022/05/17 12:45:34;;;;;;;17.15;16.35;;;;;;;;;;5095266;28;20200;-74
2022/05/17 12:48:03;;;;;;;17.10;16.30;;;;;;;;;;5095459;28;20214;-73
2022/05/17 12:50:38;;;;;;;17.33;16.52;;;;;;;;;;5095471;28;20225;-73
2022/05/17 12:53:10;;;;;;;17.02;16.23;;;;;;;;;;5095381;28;20243;-74
2022/05/17 12:55:37;;;;;;;17.13;16.33;;;;;;;;;;5095115;28;20243;-73
2022/05/17 12:58:10;;;;;;;16.90;16.10;;;;;;;;;;5095235;28;20276;-74
2022/05/17 13:00:37;;;;;;;17.20;16.40;;;;;;;;;;5095218;28;20598;-74
2022/05/17 13:03:14;;;;;;;17.30;16.50;;;;;;;;;;5095094;28;20221;-73
2022/05/17 13:05:43;;;;;;;17.50;16.70;;;;;;;;;;5095202;28;20268;-73
2022/05/17 13:08:11;;;;;;;17.33;16.52;;;;;;;;;;5094025;28;20285;-73
2022/05/17 13:10:39;;;;;;;17.60;16.80;;;;;;;;;;5094608;28;20698;-73
2022/05/17 13:13:18;;;;;;;17.23;16.42;;;;;;;;;;5094720;28;20198;-71
2022/05/17 13:15:47;;;;;;;17.25;16.45;;;;;;;;;;5095197;28;20296;-72
2022/05/17 13:18:15;;;;;;;17.45;16.65;;;;;;;;;;5094607;28;20557;-73
2022/05/17 13:20:41;;;;;;;17.60;16.80;;;;;;;;;;5094555;28;20668;-72
2022/05/17 13:23:08;;;;;;;18.10;17.30;;;;;;;;;;5094476;28;20225;-72
2022/05/17 13:25:38;;;;;;;17.30;16.50;;;;;;;;;;5094468;28;20659;-73
2022/05/17 13:28:05;;;;;;;17.77;16.98;;;;;;;;;;5094695;28;20194;-72
2022/05/17 13:30:35;;;;;;;18.10;17.30;;;;;;;;;;5094324;28;20233;-73
2022/05/17 13:33:02;;;;;;;18.42;17.52;;;;;;;;;;5094753;28;20268;-73
2022/05/17 13:35:30;;;;;;;18.25;17.40;;;;;;;;;;5094560;28;20197;-73
2022/05/17 13:38:00;;;;;;;17.52;16.73;;;;;;;;;;5094172;28;20236;-73
2022/05/17 13:40:38;;;;;;;17.08;16.27;;;;;;;;;;5094074;28;20643;-72
2022/05/17 13:43:18;;;;;;;17.15;16.35;;;;;;;;;;5093851;28;20225;-73
2022/05/17 13:45:59;;;;;;;16.83;16.10;;;;;;;;;;5094069;28;20272;-73
2022/05/17 13:48:26;;;;;;;17.25;16.45;;;;;;;;;;5094164;28;20186;-71
2022/05/17 13:50:54;;;;;;;17.42;16.63;;;;;;;;;;5094188;28;20683;-72
2022/05/17 13:53:21;;;;;;;17.13;16.33;;;;;;;;;;5094462;28;20190;-72
2022/05/17 13:55:48;;;;;;;17.08;16.27;;;;;;;;;;5094051;28;20205;-73
2022/05/17 13:58:15;;;;;;;16.75;15.95;;;;;;;;;;5094061;28;20357;-73
2022/05/17 14:00:58;;;;;;;17.13;16.33;;;;;;;;;;5093743;28;20653;-71
2022/05/17 14:03:26;;;;;;;17.45;16.65;;;;;;;;;;5093520;28;20695;-72
2022/05/17 14:05:55;;;;;;;17.08;16.27;;;;;;;;;;5093673;28;20660;-72
2022/05/17 14:13:58;;;;;;;17.95;17.15;;;;;;;;;;5094185;28;20185;-73
2022/05/17 14:16:27;;;;;;;17.58;16.77;;;;;;;;;;5093688;28;20233;-72
2022/05/17 14:18:56;;;;;;;17.27;16.48;;;;;;;;;;5093682;28;20190;-72
2022/05/17 14:21:22;;;;;;;18.08;17.27;;;;;;;;;;5093278;28;20607;-72
2022/05/17 14:23:50;;;;;;;17.17;16.38;;;;;;;;;;5093561;28;20262;-72
2022/05/17 14:26:18;;;;;;;18.17;17.38;;;;;;;;;;5093325;28;20194;-74
2022/05/17 14:28:45;;;;;;;17.77;16.98;;;;;;;;;;5093180;28;20651;-76
2022/05/17 14:31:14;;;;;;;17.40;16.60;;;;;;;;;;5093545;28;20206;-71
2022/05/17 14:33:41;;;;;;;17.58;16.77;;;;;;;;;;5093446;28;20194;-72
2022/05/17 14:36:12;;;;;;;18.10;17.30;;;;;;;;;;5093130;28;20276;-72
2022/05/17 14:38:39;;;;;;;17.70;16.90;;;;;;;;;;5093299;28;20194;-72
2022/05/17 14:41:06;;;;;;;17.45;16.65;;;;;;;;;;5093309;28;20201;-73
2022/05/17 14:43:32;;;;;;;17.52;16.73;;;;;;;;;;5092853;28;20320;-73
2022/05/17 14:45:59;;;;;;;17.98;17.17;;;;;;;;;;5092861;28;20709;-78
2022/05/17 14:48:27;;;;;;;17.83;17.02;;;;;;;;;;5093682;28;20193;-73
2022/05/17 14:50:54;;;;;;;18.08;17.27;;;;;;;;;;5093003;28;20197;-72
2022/05/17 14:53:22;;;;;;;17.95;17.15;;;;;;;;;;5092778;28;20649;-80